createdAt,value
2017-07-04T00:01:12.396Z,18.90
2017-07-04T00:03:41.776Z,18.85
2017-07-04T00:06:10.160Z,18.80
2017-07-04T00:08:38.559Z,18.75
2017-07-04T00:11:06.950Z,18.67
2017-07-04T00:13:35.873Z,18.61
2017-07-04T00:16:05.232Z,18.54
2017-07-04T00:18:34.190Z,18.57
2017-07-04T00:21:02.609Z,18.53
2017-07-04T00:23:31.000Z,18.43
2017-07-04T00:25:59.796Z,18.42
2017-07-04T00:28:28.591Z,18.40
2017-07-04T00:30:57.281Z,18.41
2017-07-04T00:33:25.723Z,18.37
2017-07-04T00:35:54.099Z,18.36
2017-07-04T00:38:22.825Z,18.33
2017-07-04T00:40:51.263Z,18.29
2017-07-04T00:43:19.677Z,18.28
2017-07-04T00:45:48.474Z,18.27
2017-07-04T00:48:17.268Z,18.20
2017-07-04T00:50:45.653Z,18.21
2017-07-04T00:53:14.213Z,18.28
2017-07-04T00:55:43.779Z,18.22
2017-07-04T00:58:12.245Z,18.26
2017-07-04T01:00:40.641Z,18.23
2017-07-04T01:03:09.030Z,18.20
2017-07-04T01:05:37.550Z,18.21
2017-07-04T01:08:06.335Z,18.21
2017-07-04T01:10:35.130Z,18.12
2017-07-04T01:13:03.938Z,18.14
2017-07-04T01:15:32.332Z,18.15
2017-07-04T01:18:00.732Z,18.10
2017-07-04T01:20:29.112Z,18.00
2017-07-04T01:22:57.517Z,17.98
2017-07-04T01:25:25.924Z,17.83
2017-07-04T01:27:55.019Z,17.79
2017-07-04T01:30:23.426Z,17.74
2017-07-04T01:32:51.819Z,17.81
2017-07-04T01:35:21.001Z,17.80
2017-07-04T01:37:49.390Z,17.74
2017-07-04T01:40:17.938Z,17.57
2017-07-04T01:42:46.830Z,17.49
2017-07-04T01:45:15.626Z,17.41
2017-07-04T01:47:44.435Z,17.30
2017-07-04T01:50:12.824Z,17.22
2017-07-04T01:52:41.389Z,17.15
2017-07-04T01:55:09.791Z,17.10
2017-07-04T01:57:38.577Z,17.10
2017-07-04T02:00:06.991Z,17.07
2017-07-04T02:02:35.386Z,17.16
2017-07-04T02:05:03.984Z,17.17
2017-07-04T02:07:32.770Z,17.20
2017-07-04T02:10:01.605Z,17.16
2017-07-04T02:12:30.013Z,17.13
2017-07-04T02:14:58.422Z,17.03
2017-07-04T02:17:27.790Z,16.97
2017-07-04T02:19:56.421Z,16.87
2017-07-04T02:22:25.232Z,16.80
2017-07-04T02:24:53.627Z,16.85
2017-07-04T02:27:22.278Z,16.88
2017-07-04T02:29:51.090Z,16.89
2017-07-04T02:32:19.494Z,16.85
2017-07-04T02:34:47.959Z,16.84
2017-07-04T02:37:16.350Z,16.71
2017-07-04T02:39:44.756Z,16.67
2017-07-04T02:42:13.160Z,16.59
2017-07-04T02:44:41.962Z,16.53
2017-07-04T02:47:11.488Z,16.48
2017-07-04T02:49:39.876Z,16.40
2017-07-04T02:52:08.269Z,16.36
2017-07-04T02:54:36.673Z,16.41
2017-07-04T02:57:05.066Z,16.48
2017-07-04T02:59:34.188Z,16.48
2017-07-04T03:02:02.870Z,16.46
2017-07-04T03:04:31.650Z,16.48
2017-07-04T03:07:00.448Z,16.42
2017-07-04T03:09:29.665Z,16.36
2017-07-04T03:11:58.640Z,16.25
2017-07-04T03:14:27.429Z,16.24
2017-07-04T03:16:56.559Z,16.20
2017-07-04T03:19:24.955Z,16.18
2017-07-04T03:21:53.486Z,16.17
2017-07-04T03:24:22.287Z,16.12
2017-07-04T03:26:50.971Z,16.10
2017-07-04T03:29:20.321Z,16.09
2017-07-04T03:31:49.058Z,16.09
2017-07-04T03:34:17.849Z,16.09
2017-07-04T03:36:46.945Z,16.15
2017-07-04T03:39:16.142Z,16.16
2017-07-04T03:41:44.938Z,16.20
2017-07-04T03:44:13.734Z,16.28
2017-07-04T03:46:42.136Z,16.36
2017-07-04T03:49:11.500Z,16.42
2017-07-04T03:51:40.498Z,16.54
2017-07-04T03:54:09.291Z,16.75
2017-07-04T03:56:37.718Z,16.98
2017-07-04T03:59:06.134Z,17.09
2017-07-04T04:01:34.925Z,17.11
2017-07-04T04:04:03.922Z,17.05
2017-07-04T04:06:33.028Z,17.06
2017-07-04T04:09:01.827Z,17.14
2017-07-04T04:11:30.229Z,17.24
2017-07-04T04:13:58.632Z,17.52
2017-07-04T04:16:27.162Z,17.70
2017-07-04T04:18:55.946Z,18.01
2017-07-04T04:21:24.437Z,17.88
2017-07-04T04:23:52.820Z,17.54
2017-07-04T04:26:21.804Z,17.50
2017-07-04T04:28:50.590Z,17.42
2017-07-04T04:31:19.465Z,17.41
2017-07-04T04:33:47.869Z,17.43
2017-07-04T04:36:16.665Z,17.39
2017-07-04T04:38:46.049Z,17.48
2017-07-04T04:41:14.852Z,17.55
2017-07-04T04:43:43.825Z,17.42
2017-07-04T04:46:12.227Z,17.40
2017-07-04T04:48:41.112Z,17.39
2017-07-04T04:51:09.529Z,17.38
2017-07-04T04:53:38.180Z,17.36
2017-07-04T04:56:06.976Z,17.47
2017-07-04T04:58:35.777Z,17.45
2017-07-04T05:01:04.267Z,17.44
2017-07-04T05:03:32.674Z,17.50
2017-07-04T05:06:01.841Z,17.50
2017-07-04T05:08:30.242Z,17.56
2017-07-04T05:10:58.793Z,17.52
2017-07-04T05:13:27.869Z,17.59
2017-07-04T05:15:56.662Z,17.49
2017-07-04T05:18:25.475Z,17.43
2017-07-04T05:20:54.802Z,17.42
2017-07-04T05:23:23.241Z,17.45
2017-07-04T05:25:52.038Z,17.50
2017-07-04T05:28:20.747Z,17.56
2017-07-04T05:30:49.137Z,17.57
2017-07-04T05:33:17.768Z,17.60
2017-07-04T05:35:47.376Z,17.48
2017-07-04T05:38:15.768Z,17.57
2017-07-04T05:40:44.575Z,17.96
2017-07-04T05:43:12.976Z,18.23
2017-07-04T05:45:41.380Z,18.04
2017-07-04T05:48:09.769Z,17.87
2017-07-04T05:50:38.379Z,17.85
2017-07-04T05:53:07.180Z,17.96
2017-07-04T05:55:36.876Z,17.92
2017-07-04T05:58:05.294Z,18.10
2017-07-04T06:00:33.677Z,18.02
2017-07-04T06:05:30.062Z,17.92
2017-07-04T06:07:58.465Z,18.19
2017-07-04T06:10:26.876Z,19.00
2017-07-04T06:12:55.282Z,20.45
2017-07-04T06:15:23.927Z,23.20
2017-07-04T06:17:54.831Z,26.07
2017-07-04T06:20:23.554Z,25.05
2017-07-04T06:22:52.347Z,25.49
2017-07-04T06:25:20.757Z,26.92
2017-07-04T06:27:49.151Z,25.35
2017-07-04T06:30:17.570Z,23.45
2017-07-04T06:32:45.969Z,22.02
2017-07-04T06:35:14.378Z,21.33
2017-07-04T06:37:43.038Z,21.12
2017-07-04T06:40:11.614Z,20.57
2017-07-04T06:42:40.410Z,23.24
2017-07-04T06:45:08.800Z,26.07
2017-07-04T06:47:37.201Z,26.45
2017-07-04T06:50:05.596Z,25.09
2017-07-04T06:52:33.997Z,23.90
2017-07-04T06:55:02.389Z,24.10
2017-07-04T06:57:30.798Z,25.31
2017-07-04T06:59:59.194Z,26.09
2017-07-04T07:02:27.605Z,25.87
2017-07-04T07:04:56.003Z,25.09
2017-07-04T07:07:24.415Z,24.66
2017-07-04T07:09:52.825Z,26.94
2017-07-04T07:12:21.216Z,28.57
2017-07-04T07:14:49.632Z,28.62
2017-07-04T07:17:18.424Z,29.26
2017-07-04T07:19:47.001Z,28.92
2017-07-04T07:22:15.704Z,27.74
2017-07-04T07:24:44.495Z,27.78
2017-07-04T07:27:12.909Z,27.60
2017-07-04T07:29:41.303Z,27.18
2017-07-04T07:32:09.722Z,26.98
2017-07-04T07:34:38.508Z,24.67
2017-07-04T07:37:07.097Z,23.55
2017-07-04T07:39:35.880Z,22.82
2017-07-04T07:42:04.270Z,25.22
2017-07-04T07:44:32.687Z,28.92
2017-07-04T07:47:01.904Z,29.84
2017-07-04T07:49:31.207Z,31.57
2017-07-04T07:51:59.607Z,31.56
2017-07-04T07:54:28.017Z,31.66
2017-07-04T07:56:56.801Z,32.71
2017-07-04T07:59:26.682Z,31.11
2017-07-04T08:01:55.065Z,30.14
2017-07-04T08:04:24.217Z,27.65
2017-07-04T08:06:52.618Z,25.76
2017-07-04T08:09:21.013Z,25.39
2017-07-04T08:11:49.426Z,24.65
2017-07-04T08:14:18.137Z,26.83
2017-07-04T08:16:46.540Z,27.77
2017-07-04T08:19:14.939Z,29.85
2017-07-04T08:21:43.675Z,32.56
2017-07-04T08:24:12.558Z,33.22
2017-07-04T08:26:42.167Z,33.13
2017-07-04T08:29:10.968Z,29.78
2017-07-04T08:31:39.749Z,27.11
2017-07-04T08:34:08.544Z,25.84
2017-07-04T08:36:37.349Z,26.88
2017-07-04T08:39:06.026Z,27.60
2017-07-04T08:41:35.121Z,28.17
2017-07-04T08:44:04.245Z,28.50
2017-07-04T08:46:32.643Z,27.56
2017-07-04T08:49:01.174Z,29.11
2017-07-04T08:51:30.005Z,30.88
2017-07-04T08:53:58.394Z,33.17
2017-07-04T08:56:26.811Z,34.27
2017-07-04T08:58:55.197Z,34.34
2017-07-04T09:01:25.324Z,33.86
2017-07-04T09:03:53.723Z,32.17
2017-07-04T09:06:22.142Z,33.07
2017-07-04T09:08:50.774Z,30.92
2017-07-04T09:11:19.192Z,30.17
2017-07-04T09:13:47.572Z,29.42
2017-07-04T09:16:15.961Z,31.29
2017-07-04T09:18:44.356Z,33.36
2017-07-04T09:21:13.086Z,35.84
2017-07-04T09:23:42.597Z,35.58
2017-07-04T09:26:10.991Z,35.00
2017-07-04T09:28:40.263Z,34.38
2017-07-04T09:31:08.658Z,34.49
2017-07-04T09:33:37.067Z,34.97
2017-07-04T09:36:05.467Z,34.21
2017-07-04T09:38:33.864Z,34.81
2017-07-04T09:41:02.262Z,36.04
2017-07-04T09:43:30.956Z,36.99
2017-07-04T09:45:59.747Z,34.50
2017-07-04T09:48:28.739Z,35.57
2017-07-04T09:50:57.537Z,37.22
2017-07-04T09:53:25.916Z,36.86
2017-07-04T09:55:54.329Z,35.35
2017-07-04T09:58:22.725Z,32.17
2017-07-04T10:00:51.138Z,32.64
2017-07-04T10:03:19.536Z,32.76
2017-07-04T10:05:47.939Z,30.63
2017-07-04T10:08:16.383Z,31.58
2017-07-04T10:10:45.281Z,32.47
2017-07-04T10:13:13.678Z,34.04
2017-07-04T10:15:42.087Z,35.16
2017-07-04T10:18:10.503Z,35.69
2017-07-04T10:20:39.654Z,32.16
2017-07-04T10:23:08.308Z,28.52
2017-07-04T10:25:37.098Z,27.68
2017-07-04T10:28:06.073Z,26.66
2017-07-04T10:30:34.470Z,26.32
2017-07-04T10:33:03.268Z,27.35
2017-07-04T10:35:31.673Z,26.83
2017-07-04T10:38:00.061Z,26.48
2017-07-04T10:40:28.707Z,26.22
2017-07-04T10:42:57.485Z,28.22
2017-07-04T10:45:26.277Z,30.88
2017-07-04T10:47:55.057Z,31.85
2017-07-04T10:50:23.460Z,29.61
2017-07-04T10:52:52.530Z,27.90
2017-07-04T10:55:20.946Z,27.41
2017-07-04T10:57:50.038Z,26.01
2017-07-04T11:00:18.541Z,26.40
2017-07-04T11:02:46.926Z,26.13
2017-07-04T11:05:15.322Z,25.04
2017-07-04T11:07:43.735Z,24.69
2017-07-04T11:10:12.522Z,26.75
2017-07-04T11:12:40.922Z,28.79
2017-07-04T11:15:09.309Z,28.70
2017-07-04T11:17:38.085Z,28.83
2017-07-04T11:20:06.874Z,29.01
2017-07-04T11:22:35.659Z,28.29
2017-07-04T11:25:04.980Z,26.43
2017-07-04T11:27:33.360Z,25.63
2017-07-04T11:30:01.773Z,25.09
2017-07-04T11:32:30.152Z,24.49
2017-07-04T11:34:58.562Z,24.30
2017-07-04T11:37:26.962Z,23.83
2017-07-04T11:39:56.200Z,23.74
2017-07-04T11:42:24.584Z,23.99
2017-07-04T11:44:53.923Z,23.66
2017-07-04T11:47:22.344Z,23.49
2017-07-04T11:49:50.728Z,23.56
2017-07-04T11:52:19.135Z,23.37
2017-07-04T11:54:47.521Z,23.37
2017-07-04T11:57:15.935Z,23.68
2017-07-04T11:59:45.862Z,23.69
2017-07-04T12:02:14.671Z,23.51
2017-07-04T12:04:43.056Z,23.31
2017-07-04T12:07:12.557Z,23.06
2017-07-04T12:09:41.675Z,22.80
2017-07-04T12:12:10.067Z,22.93
2017-07-04T12:14:38.468Z,22.91
2017-07-04T12:17:06.873Z,23.02
2017-07-04T12:19:35.275Z,23.07
2017-07-04T12:22:03.675Z,23.15
2017-07-04T12:24:32.084Z,23.01
2017-07-04T12:27:00.464Z,23.13
2017-07-04T12:29:28.860Z,23.23
2017-07-04T12:31:57.258Z,23.24
2017-07-04T12:34:26.071Z,22.86
2017-07-04T12:36:54.728Z,22.58
2017-07-04T12:39:23.533Z,22.71
2017-07-04T12:41:52.604Z,22.70
2017-07-04T12:44:21.398Z,22.89
2017-07-04T12:46:50.196Z,23.01
2017-07-04T12:49:18.982Z,23.19
2017-07-04T12:51:47.404Z,23.42
2017-07-04T12:54:15.795Z,23.50
2017-07-04T12:56:44.207Z,23.52
2017-07-04T12:59:12.607Z,23.36
2017-07-04T13:01:41.686Z,23.11
2017-07-04T13:04:10.091Z,23.08
2017-07-04T13:06:38.477Z,23.16
2017-07-04T13:09:06.890Z,23.26
2017-07-04T13:11:35.273Z,23.25
2017-07-04T13:14:04.015Z,23.45
2017-07-04T13:16:32.416Z,23.55
2017-07-04T13:19:01.062Z,23.53
2017-07-04T13:21:30.078Z,23.15
2017-07-04T13:23:58.486Z,23.06
2017-07-04T13:26:26.897Z,23.14
2017-07-04T13:28:57.257Z,23.00
2017-07-04T13:31:25.829Z,23.10
2017-07-04T13:33:54.616Z,23.20
2017-07-04T13:36:23.000Z,23.48
2017-07-04T13:38:51.410Z,23.43
2017-07-04T13:41:19.815Z,23.41
2017-07-04T13:43:48.227Z,23.08
2017-07-04T13:46:16.618Z,23.08
2017-07-04T13:48:46.499Z,23.14
2017-07-04T13:51:14.890Z,23.24
2017-07-04T13:53:43.970Z,22.94
2017-07-04T13:56:12.378Z,23.03
2017-07-04T13:58:41.414Z,22.79
2017-07-04T14:01:10.073Z,22.74
2017-07-04T14:03:38.946Z,22.83
2017-07-04T14:06:07.932Z,22.87
2017-07-04T14:08:36.326Z,22.90
2017-07-04T14:11:04.760Z,22.88
2017-07-04T14:13:33.196Z,23.01
2017-07-04T14:16:01.592Z,23.11
2017-07-04T14:18:29.974Z,23.28
2017-07-04T14:20:58.950Z,23.33
2017-07-04T14:23:27.842Z,22.94
2017-07-04T14:25:56.231Z,22.84
2017-07-04T14:28:25.029Z,22.69
2017-07-04T14:30:54.839Z,22.89
2017-07-04T14:33:23.660Z,22.95
2017-07-04T14:35:52.059Z,23.04
2017-07-04T14:38:20.467Z,22.99
2017-07-04T14:40:48.902Z,22.98
2017-07-04T14:43:17.318Z,23.08
2017-07-04T14:45:45.701Z,23.37
2017-07-04T14:48:14.318Z,23.40
2017-07-04T14:50:43.107Z,23.12
2017-07-04T14:53:11.501Z,22.95
2017-07-04T14:55:39.905Z,22.65
2017-07-04T14:58:08.343Z,22.86
2017-07-04T15:00:37.154Z,22.92
2017-07-04T15:03:05.550Z,22.99
2017-07-04T15:05:33.969Z,22.99
2017-07-04T15:08:02.682Z,22.76
2017-07-04T15:10:31.501Z,22.53
2017-07-04T15:12:59.885Z,22.61
2017-07-04T15:15:28.638Z,22.89
2017-07-04T15:17:57.437Z,22.88
2017-07-04T15:20:25.833Z,23.14
2017-07-04T15:22:54.246Z,23.19
2017-07-04T15:25:22.643Z,23.17
2017-07-04T15:27:51.903Z,23.28
2017-07-04T15:30:20.285Z,23.29
2017-07-04T15:32:49.956Z,23.15
2017-07-04T15:35:18.750Z,23.03
2017-07-04T15:37:47.549Z,23.14
2017-07-04T15:40:15.966Z,23.19
2017-07-04T15:42:44.373Z,23.06
2017-07-04T15:45:13.195Z,22.97
2017-07-04T15:47:41.760Z,22.97
2017-07-04T15:50:10.150Z,23.13
2017-07-04T15:52:38.983Z,23.81
2017-07-04T15:55:07.400Z,23.86
2017-07-04T15:57:35.789Z,23.77
2017-07-04T16:00:04.619Z,23.73
2017-07-04T16:02:33.019Z,23.53
2017-07-04T16:05:01.437Z,23.32
2017-07-04T16:07:29.838Z,23.17
2017-07-04T16:09:58.767Z,23.13
2017-07-04T16:12:27.179Z,23.07
2017-07-04T16:14:56.823Z,23.09
2017-07-04T16:17:25.232Z,23.28
2017-07-04T16:19:53.627Z,23.54
2017-07-04T16:22:22.096Z,23.49
2017-07-04T16:24:50.489Z,23.20
2017-07-04T16:27:18.888Z,22.96
2017-07-04T16:29:47.990Z,22.80
2017-07-04T16:32:16.404Z,22.57
2017-07-04T16:34:44.820Z,22.44
2017-07-04T16:37:13.230Z,22.39
2017-07-04T16:39:41.941Z,22.37
2017-07-04T16:42:10.751Z,22.42
2017-07-04T16:44:39.129Z,22.31
2017-07-04T16:47:07.533Z,22.11
2017-07-04T16:49:35.931Z,21.98
2017-07-04T16:52:04.631Z,21.98
2017-07-04T16:54:33.036Z,22.22
2017-07-04T16:57:02.142Z,22.30
2017-07-04T16:59:30.775Z,22.48
2017-07-04T17:01:59.170Z,22.42
2017-07-04T17:04:27.783Z,22.37
2017-07-04T17:06:56.591Z,22.30
2017-07-04T17:09:24.992Z,22.11
2017-07-04T17:11:53.407Z,22.01
2017-07-04T17:14:21.803Z,21.79
2017-07-04T17:16:50.620Z,21.54
2017-07-04T17:19:19.005Z,21.54
2017-07-04T17:21:48.408Z,21.50
2017-07-04T17:24:16.807Z,21.34
2017-07-04T17:26:45.567Z,21.35
2017-07-04T17:29:13.974Z,21.27
2017-07-04T17:31:42.379Z,21.21
2017-07-04T17:34:10.790Z,21.10
2017-07-04T17:36:39.590Z,21.21
2017-07-04T17:39:08.398Z,21.19
2017-07-04T17:41:36.809Z,21.17
2017-07-04T17:44:05.482Z,21.22
2017-07-04T17:46:34.141Z,21.23
2017-07-04T17:49:02.559Z,21.20
2017-07-04T17:51:30.966Z,21.19
2017-07-04T17:53:59.368Z,21.13
2017-07-04T17:56:29.235Z,20.94
2017-07-04T17:58:58.336Z,21.02
2017-07-04T18:01:26.742Z,21.04
2017-07-04T18:03:55.547Z,21.00
2017-07-04T18:06:24.351Z,21.00
2017-07-04T18:08:52.761Z,21.08
2017-07-04T18:11:21.161Z,20.91
2017-07-04T18:13:49.571Z,20.81
2017-07-04T18:16:17.975Z,20.78
2017-07-04T18:18:46.382Z,20.66
2017-07-04T18:21:14.780Z,20.65
2017-07-04T18:23:43.410Z,20.63
2017-07-04T18:26:12.189Z,20.61
2017-07-04T18:28:40.595Z,20.57
2017-07-04T18:31:09.889Z,20.51
2017-07-04T18:33:38.288Z,20.44
2017-07-04T18:36:06.954Z,20.39
2017-07-04T18:38:35.351Z,20.33
2017-07-04T18:41:03.762Z,20.27
2017-07-04T18:43:32.166Z,20.32
2017-07-04T18:46:00.878Z,20.24
2017-07-04T18:48:29.279Z,20.14
2017-07-04T18:50:57.674Z,20.13
2017-07-04T18:53:26.083Z,20.00
2017-07-04T18:55:54.490Z,19.96
2017-07-04T18:58:23.320Z,19.86
2017-07-04T19:00:52.608Z,19.72
2017-07-04T19:03:21.031Z,19.66
2017-07-04T19:05:49.431Z,19.60
2017-07-04T19:08:19.060Z,19.60
2017-07-04T19:10:47.854Z,19.64
2017-07-04T19:13:16.265Z,19.59
2017-07-04T19:15:44.678Z,19.54
2017-07-04T19:18:13.088Z,19.40
2017-07-04T19:20:42.601Z,19.36
2017-07-04T19:23:11.387Z,19.34
2017-07-04T19:25:40.586Z,19.28
2017-07-04T19:28:08.994Z,19.23
2017-07-04T19:30:37.855Z,19.14
2017-07-04T19:33:06.826Z,19.06
2017-07-04T19:35:35.472Z,18.99
2017-07-04T19:38:04.810Z,18.91
2017-07-04T19:40:34.106Z,18.90
2017-07-04T19:43:02.526Z,18.83
2017-07-04T19:45:30.930Z,18.76
2017-07-04T19:48:00.608Z,18.76
2017-07-04T19:50:29.710Z,18.75
2017-07-04T19:52:58.513Z,18.80
2017-07-04T19:55:26.941Z,18.75
2017-07-04T19:57:55.323Z,18.68
2017-07-04T20:00:24.049Z,18.64
2017-07-04T20:02:52.891Z,18.61
2017-07-04T20:05:21.311Z,18.60
2017-07-04T20:07:50.097Z,18.54
2017-07-04T20:10:18.902Z,18.45
2017-07-04T20:12:47.680Z,18.36
2017-07-04T20:15:16.687Z,18.32
2017-07-04T20:17:45.093Z,18.27
2017-07-04T20:20:13.531Z,18.28
2017-07-04T20:22:42.334Z,18.36
2017-07-04T20:25:11.125Z,18.44
2017-07-04T20:27:39.930Z,18.48
2017-07-04T20:30:08.374Z,18.54
2017-07-04T20:32:36.979Z,18.61
2017-07-04T20:35:05.774Z,18.62
2017-07-04T20:37:34.161Z,18.59
2017-07-04T20:40:02.563Z,18.53
2017-07-04T20:42:30.952Z,18.51
2017-07-04T20:44:59.367Z,18.54
2017-07-04T20:47:27.802Z,18.58
2017-07-04T20:49:56.210Z,18.59
2017-07-04T20:52:24.598Z,18.64
2017-07-04T20:54:53.206Z,18.62
2017-07-04T20:57:21.989Z,18.64
2017-07-04T20:59:50.472Z,18.67
2017-07-04T21:02:18.873Z,18.67
2017-07-04T21:04:47.266Z,18.60
2017-07-04T21:07:15.674Z,18.58
2017-07-04T21:09:44.098Z,18.61
2017-07-04T21:12:13.429Z,18.62
2017-07-04T21:14:41.813Z,18.65
2017-07-04T21:17:10.228Z,18.71
2017-07-04T21:19:38.629Z,18.73
2017-07-04T21:22:07.234Z,18.70
2017-07-04T21:24:36.113Z,18.69
2017-07-04T21:27:05.603Z,18.65
2017-07-04T21:29:34.317Z,18.68
2017-07-04T21:32:03.200Z,18.67
2017-07-04T21:34:32.015Z,18.67
2017-07-04T21:37:00.404Z,18.65
2017-07-04T21:39:28.826Z,18.61
2017-07-04T21:41:57.209Z,18.58
2017-07-04T21:44:25.613Z,18.53
2017-07-04T21:46:54.821Z,18.53
2017-07-04T21:49:23.448Z,18.50
2017-07-04T21:51:51.862Z,18.50
2017-07-04T21:54:20.251Z,18.44
2017-07-04T21:56:48.671Z,18.36
2017-07-04T21:59:17.069Z,18.35
2017-07-04T22:01:45.477Z,18.37
2017-07-04T22:04:13.921Z,18.31
2017-07-04T22:06:42.330Z,18.27
2017-07-04T22:09:10.720Z,18.26
2017-07-04T22:11:39.237Z,18.16
2017-07-04T22:14:08.026Z,18.04
2017-07-04T22:16:36.408Z,17.93
2017-07-04T22:19:04.823Z,17.81
2017-07-04T22:21:33.218Z,17.77
2017-07-04T22:24:01.627Z,17.69
2017-07-04T22:26:30.028Z,17.59
2017-07-04T22:28:58.801Z,17.54
2017-07-04T22:31:27.592Z,17.50
2017-07-04T22:33:56.730Z,17.44
2017-07-04T22:36:25.150Z,17.38
2017-07-04T22:38:53.540Z,17.43
2017-07-04T22:41:21.952Z,17.39
2017-07-04T22:43:50.336Z,17.31
2017-07-04T22:46:18.754Z,17.29
2017-07-04T22:48:47.149Z,17.30
2017-07-04T22:51:15.751Z,17.28
2017-07-04T22:53:44.546Z,17.32
2017-07-04T22:56:13.328Z,17.35
2017-07-04T22:58:41.738Z,17.38
2017-07-04T23:01:10.144Z,17.44
2017-07-04T23:03:38.541Z,17.47
2017-07-04T23:06:06.926Z,17.48
2017-07-04T23:08:35.863Z,17.47
2017-07-04T23:11:04.255Z,17.47
2017-07-04T23:13:32.646Z,17.46
2017-07-04T23:16:01.044Z,17.46
2017-07-04T23:18:29.443Z,17.50
2017-07-04T23:20:57.845Z,17.54
2017-07-04T23:23:26.634Z,17.58
2017-07-04T23:25:55.429Z,17.60
2017-07-04T23:28:24.222Z,17.59
2017-07-04T23:30:53.037Z,17.56
2017-07-04T23:33:21.434Z,17.58
2017-07-04T23:35:49.847Z,17.62
2017-07-04T23:38:18.561Z,17.64
2017-07-04T23:40:47.513Z,17.58
2017-07-04T23:43:15.901Z,17.58
2017-07-04T23:45:44.299Z,17.58
2017-07-04T23:48:13.179Z,17.58
2017-07-04T23:50:41.572Z,17.56
2017-07-04T23:53:10.274Z,17.56
2017-07-04T23:55:39.064Z,17.52
2017-07-04T23:58:07.475Z,17.53
